YWBH weather

Wallabadah Airport
New South Wales, Australia

Public forecast

Using degrees Celsius for public forecast. Weather courtesy of forecast.io.

Closest aviation weather report (METAR) to Wallabadah Airport

Closest report is Tamworth Airport, 27.0 nm (50.0 km) N. Retrieved 2019/12/07 01:30 UTC (0 seconds ago):

YSTW 070130Z AUTO 24009KT 9999 // ////// 32/M10 Q1012 RF000/0000

Closest aviation forecast (TAF) to Wallabadah Airport

Closest forecast is Tamworth Airport, 27.0 nm (50.0 km) N. Retrieved 2019-12-07 00:36 UTC (37 minutes ago):

TAF YSTW 062302Z 0700/0718 24010KT CAVOK FM071000 18005KT CAVOK FM071400 13005KT CAVOK